createdAt,value
2018-09-29T05:13:40.695Z,5.62
2018-09-29T05:14:40.240Z,5.62
2018-09-29T05:15:40.166Z,11.25
2018-09-29T05:16:40.216Z,11.25
2018-09-29T05:17:40.113Z,11.25
2018-09-29T05:18:40.174Z,11.25
2018-09-29T05:19:40.069Z,11.25
2018-09-29T05:20:40.063Z,16.88
2018-09-29T05:21:40.102Z,16.88
2018-09-29T05:22:40.488Z,16.88
2018-09-29T05:23:40.018Z,16.88
2018-09-29T05:24:40.006Z,22.50
2018-09-29T05:25:39.993Z,22.50
2018-09-29T05:26:40.131Z,22.50
2018-09-29T05:27:39.987Z,28.12
2018-09-29T05:28:40.147Z,28.12
2018-09-29T05:29:39.955Z,33.75
2018-09-29T05:30:39.952Z,33.75
2018-09-29T05:31:52.566Z,39.38
2018-09-29T05:32:40.345Z,39.38
2018-09-29T05:33:40.017Z,45.00
2018-09-29T05:34:40.036Z,50.62
2018-09-29T05:35:40.046Z,50.62
2018-09-29T05:36:40.111Z,56.25
2018-09-29T05:37:41.296Z,56.25
2018-09-29T05:39:55.810Z,67.50
2018-09-29T05:47:14.989Z,90.00
2018-09-29T05:48:14.637Z,95.62
2018-09-29T05:52:23.597Z,112.50
2018-09-29T05:57:54.562Z,135.00
2018-09-29T05:58:54.283Z,135.00
2018-09-29T05:59:54.480Z,140.62
2018-09-29T06:01:11.563Z,146.25
2018-09-29T06:05:15.647Z,163.12
2018-09-29T06:07:42.873Z,168.75
2018-09-29T06:08:42.544Z,174.38
2018-09-29T06:09:42.487Z,174.38
2018-09-29T06:10:42.360Z,180.00
2018-09-29T06:11:42.246Z,185.62
2018-09-29T06:12:42.215Z,185.62
2018-09-29T06:13:42.198Z,191.25
2018-09-29T06:14:42.187Z,196.88
2018-09-29T06:15:42.162Z,196.88
2018-09-29T06:16:42.143Z,202.50
2018-09-29T06:17:42.242Z,202.50
2018-09-29T06:18:42.225Z,213.75
2018-09-29T06:19:42.119Z,219.38
2018-09-29T06:20:42.181Z,225.00
2018-09-29T06:21:42.205Z,230.62
2018-09-29T06:22:42.149Z,236.25
2018-09-29T06:23:42.131Z,241.88
2018-09-29T06:24:42.101Z,241.88
2018-09-29T06:25:42.195Z,247.50
2018-09-29T06:26:42.053Z,253.12
2018-09-29T06:27:42.107Z,258.75
2018-09-29T06:28:42.098Z,270.00
2018-09-29T06:29:42.084Z,275.62
2018-09-29T06:30:42.929Z,275.62
2018-09-29T06:31:42.016Z,281.25
2018-09-29T06:36:28.314Z,309.38
2018-09-29T06:44:25.584Z,337.50
2018-09-29T06:45:25.353Z,343.12
2018-09-29T06:46:25.305Z,348.75
2018-09-29T06:47:25.242Z,354.38
2018-09-29T06:48:25.169Z,360.00
2018-09-29T06:49:25.161Z,365.62
2018-09-29T06:50:25.141Z,371.25
2018-09-29T06:51:25.154Z,376.88
2018-09-29T06:52:25.142Z,376.88
2018-09-29T06:53:25.111Z,382.50
2018-09-29T06:54:25.108Z,382.50
2018-09-29T06:55:25.082Z,382.50
2018-09-29T06:56:25.111Z,382.50
2018-09-29T06:57:25.080Z,382.50
2018-09-29T06:58:25.049Z,388.12
2018-09-29T06:59:25.041Z,388.12
2018-09-29T07:00:25.039Z,393.75
2018-09-29T07:01:25.099Z,393.75
2018-09-29T07:02:25.012Z,399.38
2018-09-29T07:03:25.081Z,399.38
2018-09-29T07:04:25.435Z,405.00
2018-09-29T07:05:25.019Z,405.00
2018-09-29T07:06:24.973Z,405.00
2018-09-29T07:07:24.985Z,405.00
2018-09-29T07:08:24.940Z,405.00
2018-09-29T07:09:24.933Z,399.38
2018-09-29T07:10:24.922Z,399.38
2018-09-29T07:11:24.963Z,399.38
2018-09-29T07:12:24.930Z,399.38
2018-09-29T07:13:24.918Z,405.00
2018-09-29T07:14:24.898Z,410.62
2018-09-29T07:15:24.871Z,410.62
2018-09-29T07:16:24.851Z,410.62
2018-09-29T07:17:24.881Z,410.62
2018-09-29T07:18:24.849Z,410.62
2018-09-29T07:19:24.841Z,410.62
2018-09-29T07:20:24.859Z,416.25
2018-09-29T07:21:24.866Z,421.88
2018-09-29T07:22:24.795Z,427.50
2018-09-29T07:23:24.868Z,433.12
2018-09-29T07:24:24.766Z,433.12
2018-09-29T07:25:24.819Z,438.75
2018-09-29T07:26:24.873Z,444.38
2018-09-29T07:27:24.729Z,450.00
2018-09-29T07:28:24.721Z,455.62
2018-09-29T07:29:24.776Z,461.25
2018-09-29T07:30:24.711Z,466.88
2018-09-29T07:31:24.740Z,472.50
2018-09-29T07:32:24.728Z,466.88
2018-09-29T07:33:24.697Z,472.50
2018-09-29T07:34:24.670Z,472.50
2018-09-29T07:35:24.654Z,472.50
2018-09-29T07:36:24.642Z,483.75
2018-09-29T07:37:24.625Z,506.25
2018-09-29T07:38:24.618Z,534.38
2018-09-29T07:39:24.703Z,669.38
2018-09-29T07:40:24.599Z,1316.25
2018-09-29T07:41:24.582Z,1726.88
2018-09-29T07:42:24.578Z,1811.25
2018-09-29T07:43:24.569Z,1935.00
2018-09-29T07:44:24.567Z,2109.38
2018-09-29T07:45:24.646Z,2615.62
2018-09-29T07:46:24.541Z,2874.38
2018-09-29T07:47:24.524Z,2739.38
2018-09-29T07:48:24.544Z,2705.62
2018-09-29T07:49:24.497Z,2728.12
2018-09-29T07:50:24.511Z,2790.00
2018-09-29T07:51:24.487Z,2576.25
2018-09-29T07:52:24.458Z,2593.12
2018-09-29T07:53:24.448Z,2851.88
2018-09-29T07:54:24.523Z,2688.75
2018-09-29T07:55:24.432Z,2604.38
2018-09-29T07:56:24.455Z,2221.88
2018-09-29T07:57:24.448Z,2368.12
2018-09-29T07:58:24.403Z,2328.75
2018-09-29T07:59:24.427Z,2131.88
2018-09-29T08:00:24.742Z,2053.12
2018-09-29T08:36:31.007Z,2846.25
2018-09-29T08:41:29.180Z,3667.50
2018-09-29T08:42:28.790Z,3532.50
2018-09-29T08:43:28.820Z,3549.38
2018-09-29T08:44:29.055Z,3555.00
2018-09-29T08:45:30.540Z,3487.50
2018-09-29T08:49:01.350Z,3228.75
2018-09-29T08:50:01.326Z,3099.38
2018-09-29T08:51:01.638Z,3088.12
2018-09-29T08:52:01.017Z,3172.50
2018-09-29T08:53:01.029Z,3290.62
2018-09-29T08:54:01.084Z,3476.25
2018-09-29T08:55:01.005Z,3600.00
2018-09-29T08:56:01.139Z,3397.50
2018-09-29T08:57:00.970Z,3498.75
2018-09-29T08:58:00.940Z,3178.12
2018-09-29T08:59:03.658Z,3110.62
2018-09-29T09:07:15.233Z,3735.00
2018-09-29T09:10:46.526Z,3791.25
2018-09-29T09:11:48.311Z,3521.25
2018-09-29T09:14:16.543Z,3751.88
2018-09-29T09:25:44.658Z,635.62
2018-09-29T09:36:44.612Z,545.62
2018-09-29T09:37:43.749Z,545.62
2018-09-29T09:38:43.845Z,551.25
2018-09-29T09:39:43.620Z,551.25
2018-09-29T09:40:43.674Z,551.25
2018-09-29T09:41:43.599Z,551.25
2018-09-29T09:42:43.626Z,551.25
2018-09-29T09:43:43.635Z,545.62
2018-09-29T09:44:43.586Z,545.62
2018-09-29T09:45:43.578Z,540.00
2018-09-29T09:46:43.567Z,540.00
2018-09-29T09:47:43.525Z,545.62
2018-09-29T09:48:43.525Z,545.62
2018-09-29T09:49:43.711Z,551.25
2018-09-29T09:50:43.622Z,551.25
2018-09-29T09:51:43.584Z,556.88
2018-09-29T09:52:43.508Z,551.25
2018-09-29T09:53:43.465Z,551.25
2018-09-29T09:54:43.505Z,551.25
2018-09-29T09:55:48.647Z,556.88
2018-09-29T09:59:31.941Z,579.38
2018-09-29T10:00:31.680Z,579.38
2018-09-29T10:26:04.169Z,596.25
2018-09-29T10:31:52.644Z,607.50
2018-09-29T10:45:54.577Z,596.25
2018-09-29T10:46:52.558Z,590.62
2018-09-29T10:47:52.555Z,585.00
2018-09-29T10:48:56.506Z,590.62
2018-09-29T10:57:53.701Z,573.75
2018-09-29T11:02:10.637Z,1479.38
2018-09-29T11:03:10.471Z,2643.75
2018-09-29T11:04:11.275Z,3189.38
2018-09-29T11:05:10.745Z,3105.00
2018-09-29T11:06:24.004Z,3729.38
2018-09-29T11:07:10.464Z,4280.62
2018-09-29T11:08:10.434Z,4353.75
2018-09-29T11:09:10.614Z,4196.25
2018-09-29T11:10:10.288Z,4218.75
2018-09-29T11:11:10.294Z,4404.38
2018-09-29T11:12:10.230Z,4213.12
2018-09-29T11:13:10.185Z,4179.38
2018-09-29T11:14:10.282Z,4404.38
2018-09-29T11:15:10.181Z,4263.75
2018-09-29T11:16:10.151Z,4140.00
2018-09-29T11:17:10.500Z,4207.50
2018-09-29T11:19:29.678Z,4162.50
2018-09-29T11:20:29.280Z,4213.12
2018-09-29T11:21:29.306Z,4196.25
2018-09-29T11:22:29.349Z,4246.88
2018-09-29T11:23:29.079Z,4320.00
2018-09-29T11:24:29.103Z,4381.88
2018-09-29T11:25:29.014Z,4365.00
2018-09-29T11:26:29.098Z,4320.00
2018-09-29T11:27:28.997Z,3510.00
2018-09-29T11:28:29.260Z,1428.75
2018-09-29T11:31:03.401Z,3751.88
2018-09-29T11:34:51.560Z,4140.00
2018-09-29T11:35:51.012Z,4213.12
2018-09-29T11:36:51.530Z,4336.88
2018-09-29T11:37:50.960Z,4235.62
2018-09-29T11:38:50.954Z,3948.75
2018-09-29T11:39:50.936Z,3825.00
2018-09-29T11:40:50.847Z,3695.62
2018-09-29T11:41:50.817Z,3830.62
2018-09-29T11:42:50.899Z,3926.25
2018-09-29T11:43:50.896Z,4117.50
2018-09-29T11:59:46.498Z,3898.12
2018-09-29T12:00:46.452Z,3931.88
2018-09-29T12:01:47.093Z,3965.62
2018-09-29T12:02:46.225Z,4010.62
2018-09-29T12:03:46.124Z,4207.50
2018-09-29T12:04:46.102Z,4117.50
2018-09-29T12:05:46.107Z,4072.50
2018-09-29T12:06:46.536Z,4066.88
2018-09-29T12:07:46.092Z,4083.75
2018-09-29T12:08:46.028Z,4072.50
2018-09-29T12:09:46.246Z,4078.12
2018-09-29T12:10:45.992Z,4016.25
2018-09-29T12:11:45.979Z,3999.38
2018-09-29T12:12:46.002Z,3948.75
2018-09-29T12:13:45.967Z,3926.25
2018-09-29T12:14:45.982Z,3875.62
2018-09-29T12:15:45.938Z,3926.25
2018-09-29T12:16:46.049Z,3808.12
2018-09-29T12:17:55.467Z,3819.38
2018-09-29T12:18:46.061Z,3881.25
2018-09-29T12:19:53.704Z,3802.50
2018-09-29T12:23:36.283Z,3937.50
2018-09-29T12:24:36.075Z,3999.38
2018-09-29T12:25:36.008Z,3915.00
2018-09-29T12:26:36.064Z,3802.50
2018-09-29T12:27:35.982Z,3870.00
2018-09-29T12:28:35.937Z,3943.12
2018-09-29T12:29:36.038Z,3729.38
2018-09-29T12:30:35.930Z,3774.38
2018-09-29T12:31:35.874Z,3780.00
2018-09-29T12:32:35.872Z,3661.88
2018-09-29T12:33:35.902Z,3751.88
2018-09-29T12:34:35.871Z,3830.62
2018-09-29T12:35:35.840Z,3858.75
2018-09-29T12:36:35.893Z,3926.25
2018-09-29T12:37:35.939Z,3847.50
2018-09-29T12:38:35.847Z,3763.12
2018-09-29T12:39:35.844Z,3791.25
2018-09-29T12:40:35.807Z,3690.00
2018-09-29T12:41:35.776Z,3571.88
2018-09-29T12:42:35.795Z,3656.25
2018-09-29T12:43:35.789Z,3594.38
2018-09-29T12:44:35.812Z,3622.50
2018-09-29T12:45:35.781Z,3785.62
2018-09-29T12:46:35.754Z,3796.88
2018-09-29T12:47:35.714Z,3757.50
2018-09-29T12:48:35.750Z,3678.75
2018-09-29T12:49:35.687Z,3768.75
2018-09-29T12:50:35.678Z,3751.88
2018-09-29T12:51:35.874Z,3740.62
2018-09-29T12:52:35.658Z,3746.25
2018-09-29T12:53:35.646Z,3746.25
2018-09-29T12:54:35.690Z,3746.25
2018-09-29T12:55:35.626Z,3763.12
2018-09-29T12:56:35.619Z,3594.38
2018-09-29T12:57:35.632Z,3684.38
2018-09-29T12:58:35.602Z,3594.38
2018-09-29T12:59:35.613Z,3583.12
2018-09-29T13:00:35.573Z,3538.12
2018-09-29T13:01:35.556Z,3571.88
2018-09-29T13:02:35.546Z,3656.25
2018-09-29T13:03:35.557Z,3594.38
2018-09-29T13:04:35.537Z,3600.00
2018-09-29T13:05:35.534Z,3571.88
2018-09-29T13:06:35.630Z,3498.75
2018-09-29T13:07:35.501Z,3448.12
2018-09-29T13:08:35.488Z,3487.50
2018-09-29T13:09:35.509Z,3436.88
2018-09-29T13:10:35.462Z,3346.88
2018-09-29T13:11:35.460Z,3521.25
2018-09-29T13:12:35.485Z,3521.25
2018-09-29T13:13:35.447Z,3510.00
2018-09-29T13:14:35.419Z,3510.00
2018-09-29T13:15:35.425Z,3622.50
2018-09-29T13:16:35.399Z,3735.00
2018-09-29T13:19:30.160Z,3628.12
2018-09-29T13:20:28.402Z,3510.00
2018-09-29T13:21:28.444Z,3476.25
2018-09-29T13:22:28.334Z,3470.62
2018-09-29T13:23:28.337Z,3397.50
2018-09-29T13:24:28.355Z,3228.75
2018-09-29T13:25:28.420Z,3178.12
2018-09-29T13:26:28.559Z,3369.38
2018-09-29T13:27:28.286Z,3386.25
2018-09-29T13:28:28.270Z,3234.38
2018-09-29T13:29:28.327Z,3178.12
2018-09-29T13:30:28.367Z,3178.12
2018-09-29T13:31:28.328Z,3166.88
2018-09-29T13:32:28.233Z,3150.00
2018-09-29T13:33:28.215Z,3189.38
2018-09-29T13:34:28.212Z,3211.88
2018-09-29T13:35:28.211Z,3189.38
2018-09-29T13:36:28.192Z,2981.25
2018-09-29T13:37:28.194Z,2621.25
2018-09-29T13:38:28.163Z,2739.38
2018-09-29T13:39:28.256Z,3071.25
2018-09-29T13:40:28.166Z,3026.25
2018-09-29T13:41:28.143Z,3060.00
2018-09-29T13:42:28.237Z,3088.12
2018-09-29T13:43:28.122Z,3161.25
2018-09-29T13:44:28.164Z,3071.25
2018-09-29T13:45:28.100Z,3144.38
2018-09-29T13:46:28.131Z,3082.50
2018-09-29T13:47:28.104Z,3003.75
2018-09-29T13:48:28.148Z,2902.50
2018-09-29T13:49:28.104Z,2880.00
2018-09-29T13:50:28.044Z,2716.88
2018-09-29T13:51:28.108Z,2818.12
2018-09-29T13:52:28.103Z,2958.75
2018-09-29T13:53:28.842Z,2812.50
2018-09-29T13:54:28.000Z,2896.88
2018-09-29T13:55:27.984Z,2823.75
2018-09-29T13:56:27.970Z,2767.50
2018-09-29T13:57:28.085Z,2874.38
2018-09-29T13:58:29.085Z,2795.62
2018-09-29T14:06:30.273Z,2615.62
2018-09-29T14:07:29.889Z,2300.62
2018-09-29T14:08:29.894Z,1451.25
2018-09-29T14:09:29.854Z,1473.75
2018-09-29T14:10:29.768Z,860.62
2018-09-29T14:11:29.704Z,427.50
2018-09-29T14:12:29.703Z,433.12
2018-09-29T14:13:29.732Z,506.25
2018-09-29T14:14:29.680Z,1231.88
2018-09-29T14:15:29.653Z,1546.88
2018-09-29T14:16:29.646Z,1507.50
2018-09-29T14:17:29.746Z,1203.75
2018-09-29T14:18:29.656Z,410.62
2018-09-29T14:19:29.613Z,382.50
2018-09-29T14:22:24.896Z,354.38
2018-09-29T14:23:24.367Z,343.12
2018-09-29T14:24:24.554Z,343.12
2018-09-29T14:25:24.453Z,343.12
2018-09-29T14:26:24.271Z,337.50
2018-09-29T14:27:24.307Z,337.50
2018-09-29T14:28:24.335Z,337.50
2018-09-29T14:29:24.294Z,337.50
2018-09-29T14:30:25.168Z,343.12
2018-09-29T14:31:24.510Z,337.50
2018-09-29T14:32:25.243Z,337.50
2018-09-29T14:33:24.366Z,337.50
2018-09-29T14:34:25.161Z,331.88
2018-09-29T14:35:24.206Z,331.88
2018-09-29T14:36:24.314Z,326.25
2018-09-29T14:37:24.720Z,326.25
2018-09-29T14:38:24.225Z,326.25
2018-09-29T14:39:24.169Z,326.25
2018-09-29T14:43:15.275Z,320.62
2018-09-29T14:44:14.827Z,320.62
2018-09-29T14:45:14.954Z,315.00
2018-09-29T14:46:14.761Z,315.00
2018-09-29T14:47:14.508Z,315.00
2018-09-29T14:48:15.072Z,315.00
2018-09-29T14:49:14.511Z,315.00
2018-09-29T14:50:14.550Z,315.00
2018-09-29T14:51:15.129Z,309.38
2018-09-29T14:52:14.519Z,309.38
2018-09-29T14:53:15.097Z,309.38
2018-09-29T14:54:14.446Z,309.38
2018-09-29T14:55:14.515Z,309.38
2018-09-29T14:56:14.546Z,309.38
2018-09-29T14:57:14.433Z,303.75
2018-09-29T14:58:15.077Z,303.75
2018-09-29T14:59:14.372Z,303.75
2018-09-29T15:00:14.350Z,303.75
2018-09-29T15:01:14.456Z,303.75
2018-09-29T15:02:15.130Z,303.75
2018-09-29T15:03:14.474Z,303.75
2018-09-29T15:04:14.340Z,298.12
2018-09-29T15:05:14.417Z,298.12
2018-09-29T15:06:14.326Z,298.12
2018-09-29T15:07:14.318Z,298.12
2018-09-29T15:08:14.400Z,292.50
2018-09-29T15:09:14.362Z,292.50
2018-09-29T15:10:15.142Z,292.50
2018-09-29T15:15:10.881Z,286.88
2018-09-29T15:16:10.691Z,286.88
2018-09-29T15:17:10.518Z,286.88
2018-09-29T15:18:10.392Z,286.88
2018-09-29T15:19:10.338Z,286.88
2018-09-29T15:20:13.480Z,292.50
2018-09-29T15:21:10.479Z,286.88
2018-09-29T15:22:10.256Z,281.25
2018-09-29T15:23:11.479Z,281.25
2018-09-29T15:24:10.292Z,281.25
2018-09-29T15:25:10.222Z,281.25
2018-09-29T15:26:10.286Z,281.25
2018-09-29T15:27:10.255Z,275.62
2018-09-29T15:28:10.321Z,275.62
2018-09-29T15:29:10.235Z,275.62
2018-09-29T15:30:10.210Z,275.62
2018-09-29T15:31:10.237Z,275.62
2018-09-29T15:32:10.144Z,275.62
2018-09-29T15:33:10.153Z,270.00
2018-09-29T15:34:10.149Z,270.00
2018-09-29T15:35:10.149Z,270.00
2018-09-29T15:36:10.094Z,270.00
2018-09-29T15:37:10.143Z,264.38
2018-09-29T15:38:10.169Z,264.38
2018-09-29T15:39:10.081Z,264.38
2018-09-29T15:40:10.068Z,264.38
2018-09-29T15:41:10.078Z,264.38
2018-09-29T15:42:11.118Z,258.75
2018-09-29T15:43:10.021Z,258.75
2018-09-29T15:44:10.051Z,258.75
2018-09-29T15:45:10.181Z,258.75
2018-09-29T15:46:10.005Z,253.12
2018-09-29T15:47:10.000Z,253.12
2018-09-29T15:48:09.973Z,253.12
2018-09-29T15:49:09.989Z,253.12
2018-09-29T15:50:10.008Z,253.12
2018-09-29T15:51:09.951Z,247.50
2018-09-29T15:52:09.919Z,247.50
2018-09-29T15:53:09.964Z,247.50
2018-09-29T15:54:10.027Z,247.50
2018-09-29T15:55:10.156Z,241.88
2018-09-29T15:56:09.891Z,241.88
2018-09-29T15:57:10.178Z,236.25
2018-09-29T15:58:09.979Z,236.25
2018-09-29T15:59:09.964Z,236.25
2018-09-29T16:00:09.855Z,230.62
2018-09-29T16:01:09.859Z,230.62
2018-09-29T16:02:09.849Z,230.62
2018-09-29T16:03:09.803Z,230.62
2018-09-29T16:04:09.789Z,225.00
2018-09-29T16:05:09.929Z,225.00
2018-09-29T16:06:09.947Z,225.00
2018-09-29T16:07:10.009Z,219.38
2018-09-29T16:08:09.783Z,219.38
2018-09-29T16:09:09.914Z,213.75
2018-09-29T16:10:09.915Z,213.75
2018-09-29T16:11:09.802Z,208.12
2018-09-29T16:12:09.710Z,202.50
2018-09-29T16:13:09.758Z,196.88
2018-09-29T16:14:09.689Z,196.88
2018-09-29T16:15:09.671Z,196.88
2018-09-29T16:16:09.724Z,196.88
2018-09-29T16:17:09.665Z,196.88
2018-09-29T16:18:09.672Z,191.25
2018-09-29T16:19:09.704Z,191.25
2018-09-29T16:20:10.472Z,185.62
2018-09-29T16:21:09.677Z,180.00
2018-09-29T16:22:09.664Z,180.00
2018-09-29T16:23:09.658Z,174.38
2018-09-29T16:25:32.177Z,163.12
2018-09-29T16:26:31.745Z,163.12
2018-09-29T16:27:31.752Z,163.12
2018-09-29T16:28:31.730Z,157.50
2018-09-29T16:31:22.511Z,140.62
2018-09-29T16:38:17.133Z,101.25
2018-09-29T16:39:16.808Z,101.25
2018-09-29T16:40:16.568Z,95.62
2018-09-29T16:41:16.540Z,90.00
2018-09-29T16:42:16.723Z,90.00
2018-09-29T16:43:16.546Z,84.38
2018-09-29T16:44:16.486Z,78.75
2018-09-29T16:45:17.449Z,78.75
2018-09-29T16:46:16.477Z,73.12
2018-09-29T16:47:31.160Z,67.50
2018-09-29T16:48:19.490Z,67.50
2018-09-29T16:49:18.494Z,61.88
2018-09-29T16:50:16.628Z,56.25
2018-09-29T16:52:50.316Z,50.62
2018-09-29T16:53:49.725Z,50.62
2018-09-29T16:54:49.656Z,45.00
2018-09-29T16:55:50.064Z,45.00
2018-09-29T16:56:49.695Z,39.38
2018-09-29T16:57:49.655Z,39.38
2018-09-29T16:59:00.137Z,33.75
2018-09-29T16:59:50.556Z,33.75
2018-09-29T17:03:13.737Z,28.12
2018-09-29T17:04:13.678Z,22.50
2018-09-29T17:05:13.759Z,22.50
2018-09-29T17:06:13.219Z,22.50
2018-09-29T17:07:13.328Z,16.88
2018-09-29T17:09:26.425Z,16.88
2018-09-29T17:10:26.203Z,11.25
2018-09-29T17:11:26.090Z,11.25
2018-09-29T17:12:26.216Z,11.25
2018-09-29T17:13:26.051Z,11.25
2018-09-29T17:14:26.182Z,11.25
2018-09-29T17:15:26.030Z,5.62
2018-09-29T17:16:26.270Z,5.62
2018-09-29T17:17:26.256Z,5.62
2018-09-29T17:18:28.825Z,5.62
2018-09-29T17:19:27.720Z,5.62
2018-09-29T17:20:26.169Z,5.62
2018-09-29T17:21:26.083Z,0.00
2018-09-29T17:22:26.100Z,0.00
2018-09-29T17:23:26.696Z,0.00
2018-09-29T17:24:28.658Z,0.00
2018-09-29T17:25:26.024Z,0.00
2018-09-29T17:26:26.036Z,0.00
2018-09-29T17:27:26.017Z,0.00
2018-09-29T17:28:25.911Z,0.00
2018-09-29T17:29:25.922Z,0.00
2018-09-29T17:30:25.903Z,0.00
2018-09-29T17:31:25.893Z,0.00
2018-09-29T17:32:25.919Z,0.00
2018-09-29T17:35:06.281Z,0.00
2018-09-29T17:36:05.489Z,0.00
2018-09-29T17:37:05.313Z,0.00
2018-09-29T17:38:05.251Z,0.00
2018-09-29T17:39:05.983Z,0.00
2018-09-29T17:40:05.383Z,0.00
2018-09-29T17:41:07.948Z,0.00
2018-09-29T17:42:05.116Z,0.00
2018-09-29T17:43:05.136Z,0.00
2018-09-29T17:44:05.122Z,0.00
2018-09-29T17:45:05.122Z,0.00
2018-09-29T17:46:05.082Z,0.00
2018-09-29T17:47:05.130Z,0.00
2018-09-29T17:48:05.149Z,0.00
2018-09-29T17:49:05.040Z,0.00
2018-09-29T17:50:05.801Z,0.00
2018-09-29T17:51:16.358Z,0.00
2018-09-29T17:52:05.151Z,0.00
2018-09-29T17:53:05.056Z,0.00
2018-09-29T17:54:05.063Z,0.00
2018-09-29T17:55:05.103Z,0.00
2018-09-29T17:56:05.007Z,0.00
2018-09-29T17:57:04.987Z,0.00
2018-09-29T17:58:04.952Z,0.00
2018-09-29T17:59:04.992Z,0.00
2018-09-29T18:00:04.919Z,0.00
2018-09-29T18:01:04.948Z,0.00
2018-09-29T18:02:04.886Z,0.00
2018-09-29T18:03:04.946Z,0.00
2018-09-29T18:04:05.029Z,0.00
2018-09-29T18:05:06.994Z,0.00
2018-09-29T18:06:04.863Z,0.00
2018-09-29T18:07:04.947Z,0.00
2018-09-29T18:08:04.971Z,0.00
2018-09-29T18:09:04.927Z,0.00
2018-09-29T18:10:04.883Z,0.00
2018-09-29T18:11:04.797Z,0.00
2018-09-29T18:12:04.783Z,0.00
2018-09-29T18:13:04.765Z,0.00
2018-09-29T18:14:06.456Z,0.00
2018-09-29T18:15:04.871Z,0.00
2018-09-29T18:38:30.468Z,0.00
2018-09-29T18:39:29.310Z,0.00
2018-09-29T18:40:29.120Z,0.00
2018-09-29T18:41:29.255Z,0.00
2018-09-29T18:42:29.100Z,0.00
2018-09-29T18:43:29.007Z,0.00
2018-09-29T18:44:29.012Z,0.00
2018-09-29T18:45:29.020Z,0.00
2018-09-29T18:46:29.002Z,0.00
2018-09-29T18:50:20.503Z,0.00
2018-09-29T18:51:20.248Z,0.00
2018-09-29T18:58:35.945Z,0.00
2018-09-29T18:59:33.349Z,0.00
2018-09-29T19:11:47.608Z,0.00
2018-09-29T19:15:23.710Z,0.00
2018-09-29T19:16:23.741Z,0.00
2018-09-29T19:17:23.170Z,0.00
2018-09-29T19:18:23.091Z,0.00
2018-09-29T19:19:23.091Z,0.00
2018-09-29T19:20:23.114Z,0.00
2018-09-29T19:21:23.061Z,0.00
2018-09-29T19:22:22.988Z,0.00
2018-09-29T19:23:23.042Z,0.00
2018-09-29T19:24:23.121Z,0.00
2018-09-29T19:25:22.959Z,0.00
2018-09-29T19:26:22.946Z,0.00
2018-09-29T19:27:23.153Z,0.00
2018-09-29T19:28:22.931Z,0.00
2018-09-29T19:29:22.955Z,0.00
2018-09-29T19:30:22.911Z,0.00
2018-09-29T19:31:22.896Z,0.00
2018-09-29T19:32:22.936Z,0.00
2018-09-29T19:33:22.868Z,0.00
2018-09-29T19:34:22.876Z,0.00
2018-09-29T19:35:22.905Z,0.00
2018-09-29T19:36:23.646Z,0.00
2018-09-29T19:39:04.140Z,0.00
2018-09-29T19:40:03.786Z,0.00
2018-09-29T19:41:04.097Z,0.00
2018-09-29T19:42:03.561Z,0.00
2018-09-29T19:43:03.602Z,0.00
2018-09-29T19:44:03.646Z,0.00
2018-09-29T19:45:03.483Z,0.00
2018-09-29T19:46:03.477Z,0.00
2018-09-29T19:47:03.463Z,0.00
2018-09-29T19:48:03.490Z,0.00
2018-09-29T19:49:03.439Z,0.00
2018-09-29T19:50:03.453Z,0.00
2018-09-29T19:51:03.495Z,0.00
2018-09-29T19:52:03.402Z,0.00
2018-09-29T19:53:03.395Z,0.00
2018-09-29T19:54:03.410Z,0.00
2018-09-29T19:55:03.401Z,0.00
2018-09-29T19:56:03.373Z,0.00
2018-09-29T19:57:03.343Z,0.00
2018-09-29T19:58:03.334Z,0.00
2018-09-29T19:59:03.380Z,0.00
2018-09-29T20:00:03.440Z,0.00
2018-09-29T20:01:03.343Z,0.00
2018-09-29T20:15:49.296Z,0.00
2018-09-29T20:16:48.898Z,0.00
2018-09-29T20:17:48.829Z,0.00
2018-09-29T20:18:48.723Z,0.00
2018-09-29T20:19:48.713Z,0.00
2018-09-29T20:20:48.697Z,0.00
2018-09-29T20:21:48.696Z,0.00
2018-09-29T20:22:48.657Z,0.00
2018-09-29T20:23:48.657Z,0.00
2018-09-29T20:24:48.653Z,0.00
2018-09-29T20:25:48.626Z,0.00
2018-09-29T20:26:48.618Z,0.00
2018-09-29T20:27:48.606Z,0.00
2018-09-29T20:28:48.613Z,0.00
2018-09-29T20:29:48.608Z,0.00
2018-09-29T20:30:51.406Z,0.00
2018-09-29T20:31:48.650Z,0.00
2018-09-29T20:44:08.905Z,0.00
